Valhermoso Sp, Alabama
Current Conditions -  °F | °C
As of 8:53 AM on Monday 22 Dec 2014 (Local Time) from KHSV Reporting Station
Drizzle Drizzle  
Wind Chill: 50°   Ceiling: 800
Heat Index: 50°   Visibility: 6mi
Dew Point: 46°   Wind: 10mph
Humidity: 86%   Direction: 120°ESE
Pressure: 29.93"   Gusts: NA
Location:  34.5494°N, 86.6929°W
Report Text: KHSV 221453Z 12009KT 6SM -DZ BR OVC008 10/08 A2993 RMK AO2 DZB52 SLP134 P0000 60000 T01000078 58008
Loading
Personal Weather Stations






























Interactive Weather Map New forecast layout! Learn more

10-Day Weather Forecast

Advertisements
Track Severe Weather on mobile